Time;durP1;ratioP1;P1;durP2;ratioP2;P2;SDS_P1;SDS_P2;PMS_P1;PMS_P2;Temp;Humidity;BMP_temperature;BMP_pressure;BME280_temperature;BME280_humidity;BME280_pressure;Samples;Min_cycle;Max_cycle;Signal;HPM_P1;HPM_P2
2023/08/01 00:00:14;;;;;;;1.77;1.35;;;;;;;19.79;73.88;94272.72;5077409;28;20202;-74
2023/08/01 00:02:43;;;;;;;2.78;1.77;;;;;;;19.70;74.00;94275.06;5069808;28;20199;-74
2023/08/01 00:05:11;;;;;;;1.90;1.58;;;;;;;19.67;74.23;94275.09;5069350;28;20276;-74
2023/08/01 00:07:38;;;;;;;2.58;1.70;;;;;;;19.67;74.21;94275.88;5056225;28;20261;-74
2023/08/01 00:10:05;;;;;;;4.38;1.55;;;;;;;19.68;74.14;94266.44;5069350;28;20207;-74
2023/08/01 00:12:32;;;;;;;3.33;1.67;;;;;;;19.59;74.65;94266.06;5069321;28;20882;-74
2023/08/01 00:14:59;;;;;;;2.22;1.38;;;;;;;19.61;74.67;94271.16;5068737;28;20237;-74
2023/08/01 00:17:26;;;;;;;3.25;1.85;;;;;;;19.56;74.90;94269.59;5068789;28;20226;-74
2023/08/01 00:19:54;;;;;;;1.92;1.30;;;;;;;19.50;74.92;94265.69;5069298;28;20209;-74
2023/08/01 00:22:23;;;;;;;3.53;1.70;;;;;;;19.41;75.17;94268.00;5069464;28;20206;-74
2023/08/01 00:24:50;;;;;;;1.88;1.60;;;;;;;19.42;75.25;94264.06;5069113;28;20203;-73
2023/08/01 00:27:16;;;;;;;5.20;1.90;;;;;;;19.43;75.19;94262.88;5068874;28;20256;-74
2023/08/01 00:29:43;;;;;;;1.98;1.30;;;;;;;19.43;75.10;94260.94;5069030;28;20210;-74
2023/08/01 00:32:10;;;;;;;3.08;1.73;;;;;;;19.41;75.26;94262.50;5068382;28;20242;-74
2023/08/01 00:34:37;;;;;;;2.05;1.50;;;;;;;19.38;75.62;94268.78;5068544;28;20592;-74
2023/08/01 00:37:05;;;;;;;3.47;1.80;;;;;;;19.35;75.09;94264.88;5068833;28;20207;-75
2023/08/01 00:39:33;;;;;;;2.28;1.65;;;;;;;19.35;75.35;94272.31;5068925;28;20198;-75
2023/08/01 00:42:00;;;;;;;1.92;1.40;;;;;;;19.33;75.49;94266.44;5069203;28;20203;-75
2023/08/01 00:44:26;;;;;;;2.17;1.60;;;;;;;19.34;75.32;94268.00;5069055;28;20207;-75
2023/08/01 00:46:53;;;;;;;2.25;1.45;;;;;;;19.35;75.08;94266.81;5071864;28;20294;-73
2023/08/01 00:49:20;;;;;;;2.17;1.10;;;;;;;19.36;75.14;94273.88;5068857;28;20211;-73
2023/08/01 00:51:48;;;;;;;2.25;1.30;;;;;;;19.36;74.92;94265.66;5068963;28;20207;-73
2023/08/01 00:54:15;;;;;;;1.85;1.50;;;;;;;19.35;74.80;94264.06;5068681;28;20231;-74
2023/08/01 00:56:44;;;;;;;1.60;1.45;;;;;;;19.35;74.33;94258.59;5068712;28;20203;-73
2023/08/01 00:59:13;;;;;;;2.85;1.30;;;;;;;19.30;74.65;94256.22;5082742;28;20206;-75
2023/08/01 01:01:40;;;;;;;1.88;1.20;;;;;;;19.35;74.21;94258.59;5074369;28;20261;-73
2023/08/01 01:04:07;;;;;;;2.03;1.50;;;;;;;19.37;74.22;94261.72;5068623;28;20947;-73
2023/08/01 01:06:42;;;;;;;2.45;1.60;;;;;;;19.29;73.94;94254.66;5068514;28;20210;-74
2023/08/01 01:09:16;;;;;;;3.60;1.50;;;;;;;19.30;74.12;94251.50;5068782;28;20194;-73
2023/08/01 01:11:45;;;;;;;2.80;1.50;;;;;;;19.34;73.82;94251.53;5068692;28;20205;-73
2023/08/01 01:14:12;;;;;;;1.83;1.40;;;;;;;19.34;73.91;94252.31;5055747;28;20227;-74
2023/08/01 01:16:39;;;;;;;4.35;1.70;;;;;;;19.35;73.88;94250.34;5068690;28;20298;-74
2023/08/01 01:19:08;;;;;;;6.30;1.55;;;;;;;19.33;73.79;94244.44;5072628;28;20317;-74
2023/08/01 01:21:38;;;;;;;1.75;1.35;;;;;;;19.35;73.41;94247.59;5072763;28;20260;-73
2023/08/01 01:24:06;;;;;;;1.73;1.48;;;;;;;19.34;73.55;94240.53;5078317;28;20206;-73
2023/08/01 01:26:34;;;;;;;2.10;1.70;;;;;;;19.41;73.31;94230.31;5071589;28;20203;-73
2023/08/01 01:29:03;;;;;;;5.20;1.60;;;;;;;19.42;73.33;94225.59;5072924;28;20276;-74
2023/08/01 01:31:30;;;;;;;2.45;1.30;;;;;;;19.50;72.91;94232.72;5072186;28;20203;-74
2023/08/01 01:33:58;;;;;;;2.10;1.67;;;;;;;19.59;72.74;94232.31;5072328;28;20218;-73
2023/08/01 01:36:24;;;;;;;1.90;1.40;;;;;;;19.63;72.49;94236.63;5071962;28;20260;-73
2023/08/01 01:38:53;;;;;;;5.65;1.60;;;;;;;19.59;72.49;94219.34;5072820;28;20209;-73
2023/08/01 01:41:19;;;;;;;2.20;1.60;;;;;;;19.60;72.61;94234.66;5071945;28;20225;-73
2023/08/01 01:43:46;;;;;;;2.47;1.58;;;;;;;19.63;72.10;94236.63;5072406;28;20202;-73
2023/08/01 01:46:13;;;;;;;4.13;1.90;;;;;;;19.72;72.55;94228.75;5075333;28;20252;-73
2023/08/01 01:48:42;;;;;;;2.42;1.65;;;;;;;19.80;71.90;94232.28;5071747;28;20540;-74
2023/08/01 01:51:08;;;;;;;1.65;1.35;;;;;;;19.87;72.02;94227.53;5071537;28;20230;-73
2023/08/01 01:53:35;;;;;;;1.90;1.40;;;;;;;19.82;72.68;94221.66;5071962;28;20214;-74
2023/08/01 01:56:04;;;;;;;2.63;1.50;;;;;;;19.80;72.47;94235.81;5086171;28;20210;-74
2023/08/01 01:58:30;;;;;;;5.50;2.17;;;;;;;19.71;72.65;94240.91;5072029;28;20207;-74
2023/08/01 02:00:57;;;;;;;2.13;1.42;;;;;;;19.59;73.13;94240.53;5080424;28;20207;-74
2023/08/01 02:03:24;;;;;;;1.60;1.30;;;;;;;19.48;72.63;94240.53;5071749;28;20305;-73
2023/08/01 02:05:51;;;;;;;2.20;1.50;;;;;;;19.43;73.00;94246.41;5071836;28;20557;-74
2023/08/01 02:08:18;;;;;;;2.45;1.60;;;;;;;19.34;72.96;94240.53;5071909;28;20577;-73
2023/08/01 02:10:44;;;;;;;1.63;1.35;;;;;;;19.23;72.88;94235.03;5071886;28;20861;-73
2023/08/01 02:13:12;;;;;;;2.58;1.70;;;;;;;19.07;73.42;94238.16;5071593;28;20657;-74
2023/08/01 02:15:39;;;;;;;1.80;1.42;;;;;;;19.05;72.83;94229.53;5072023;28;20235;-74
2023/08/01 02:18:05;;;;;;;2.33;1.42;;;;;;;19.02;73.05;94241.28;5072003;28;20226;-74
2023/08/01 02:20:32;;;;;;;2.63;1.77;;;;;;;19.01;73.27;94239.72;5071903;28;20638;-74
2023/08/01 02:22:59;;;;;;;2.45;1.55;;;;;;;19.01;73.06;94234.22;5071322;28;20268;-74
2023/08/01 02:25:25;;;;;;;2.47;1.75;;;;;;;18.91;73.28;94240.50;5071834;28;20214;-74
2023/08/01 02:27:52;;;;;;;1.70;1.20;;;;;;;18.91;73.41;94246.00;5071372;28;20214;-74
2023/08/01 02:30:20;;;;;;;1.65;1.40;;;;;;;18.82;73.56;94242.84;5071333;28;20195;-74
2023/08/01 02:32:47;;;;;;;3.72;1.67;;;;;;;18.85;72.95;94242.06;5071312;28;20239;-74
2023/08/01 02:35:14;;;;;;;4.72;2.10;;;;;;;18.82;72.79;94234.59;5071229;28;20566;-74
2023/08/01 02:37:42;;;;;;;2.08;1.58;;;;;;;18.91;72.28;94235.00;5071515;28;20202;-74
2023/08/01 02:40:10;;;;;;;3.47;1.50;;;;;;;18.88;72.40;94235.00;5071508;28;20203;-74
2023/08/01 02:42:37;;;;;;;2.05;1.58;;;;;;;18.88;72.42;94238.53;5070943;28;20202;-74
2023/08/01 02:45:05;;;;;;;2.60;1.55;;;;;;;18.86;72.66;94232.63;5071590;28;20199;-74
2023/08/01 02:47:33;;;;;;;2.28;1.40;;;;;;;18.84;73.45;94235.00;5074269;28;20199;-74
2023/08/01 02:50:00;;;;;;;3.92;1.45;;;;;;;18.86;73.55;94238.13;5071295;28;20207;-74
2023/08/01 02:52:27;;;;;;;3.15;1.52;;;;;;;18.76;73.64;94233.41;5071284;28;20675;-74
2023/08/01 02:54:54;;;;;;;2.55;1.70;;;;;;;18.63;74.19;94230.25;5070806;28;20242;-74
2023/08/01 02:57:21;;;;;;;2.10;1.48;;;;;;;18.69;73.89;94231.44;5072401;28;20599;-74
2023/08/01 02:59:48;;;;;;;2.70;1.63;;;;;;;18.61;74.18;94238.06;5086483;28;20205;-74
2023/08/01 03:02:15;;;;;;;2.35;1.58;;;;;;;18.54;73.92;94235.28;5075604;28;20199;-74
2023/08/01 03:04:43;;;;;;;9.77;1.85;;;;;;;18.50;74.56;94237.22;5068993;28;20633;-74
2023/08/01 03:07:10;;;;;;;2.85;1.80;;;;;;;18.48;74.39;94242.31;5070179;28;20531;-74
2023/08/01 03:09:36;;;;;;;4.30;1.75;;;;;;;18.38;74.67;94237.59;5070437;28;20249;-74
2023/08/01 03:12:04;;;;;;;2.03;1.55;;;;;;;18.29;74.32;94246.19;5070661;28;20191;-74
2023/08/01 03:14:31;;;;;;;3.22;1.65;;;;;;;18.23;74.72;94242.22;5070398;28;20245;-74
2023/08/01 03:16:57;;;;;;;3.45;1.50;;;;;;;18.26;74.33;94238.72;5070370;28;20238;-74
2023/08/01 03:19:24;;;;;;;2.65;1.52;;;;;;;18.25;74.33;94231.66;5070485;28;20203;-74
2023/08/01 03:21:53;;;;;;;2.65;1.60;;;;;;;18.30;74.38;94234.06;5072957;28;20225;-74
2023/08/01 03:24:19;;;;;;;2.50;1.73;;;;;;;18.33;74.35;94238.75;5070293;28;20214;-74
2023/08/01 03:26:46;;;;;;;3.25;2.10;;;;;;;18.31;74.51;94235.59;5070182;28;20199;-74
2023/08/01 03:29:13;;;;;;;2.58;1.48;;;;;;;18.56;74.19;94240.41;5076322;28;20195;-74
2023/08/01 03:31:40;;;;;;;2.08;1.58;;;;;;;19.14;72.99;94238.16;5069872;28;20246;-74
2023/08/01 03:34:08;;;;;;;4.65;1.88;;;;;;;19.70;70.45;94241.31;5069674;28;20286;-74
2023/08/01 03:36:35;;;;;;;2.33;1.60;;;;;;;20.02;68.03;94236.53;5070151;28;20207;-74
2023/08/01 03:39:03;;;;;;;4.15;1.40;;;;;;;20.31;66.92;94237.22;5070000;28;20203;-74
2023/08/01 03:41:30;;;;;;;3.53;2.00;;;;;;;20.50;66.64;94239.53;5068899;28;20619;-74
2023/08/01 03:43:57;;;;;;;3.35;1.65;;;;;;;20.57;66.16;94234.00;5069575;28;20225;-74
2023/08/01 03:46:24;;;;;;;3.25;2.30;;;;;;;20.43;66.70;94247.81;5072403;28;20261;-74
2023/08/01 03:48:51;;;;;;;2.35;1.50;;;;;;;20.17;67.92;94253.78;5073843;28;20646;-74
2023/08/01 03:51:19;;;;;;;3.65;1.50;;;;;;;20.68;66.84;94252.44;5069180;28;20191;-74
2023/08/01 03:53:46;;;;;;;4.60;2.08;;;;;;;21.27;65.35;94243.03;5069268;28;20283;-74
2023/08/01 03:56:14;;;;;;;4.00;2.22;;;;;;;21.18;65.43;94245.41;5069529;28;20727;-79
2023/08/01 03:58:41;;;;;;;3.92;2.03;;;;;;;22.44;61.92;94235.63;5070898;28;20210;-80
2023/08/01 04:01:08;;;;;;;2.85;1.80;;;;;;;23.31;59.34;94232.09;5067498;28;20260;-85
2023/08/01 04:03:34;;;;;;;5.72;2.33;;;;;;;23.25;60.55;94250.31;5070631;28;20900;-85
2023/08/01 04:06:01;;;;;;;7.10;3.38;;;;;;;23.32;61.26;94250.22;5069825;28;20199;-82
2023/08/01 04:08:28;;;;;;;7.50;3.80;;;;;;;23.39;61.37;94250.09;5069358;28;20600;-81
2023/08/01 04:10:55;;;;;;;5.13;2.95;;;;;;;23.90;59.52;94250.13;5068457;28;20199;-81
2023/08/01 04:13:23;;;;;;;14.13;3.58;;;;;;;24.14;59.38;94248.09;5068318;28;20598;-81
2023/08/01 04:15:50;;;;;;;4.25;3.58;;;;;;;24.49;57.78;94244.66;5068813;28;20234;-80
2023/08/01 04:18:16;;;;;;;4.93;3.38;;;;;;;24.60;57.87;94239.69;5069189;28;20219;-80
2023/08/01 04:20:43;;;;;;;4.65;3.50;;;;;;;24.73;57.08;94248.94;5069516;28;20199;-81
2023/08/01 04:23:10;;;;;;;4.72;3.60;;;;;;;24.64;57.17;94242.38;5068704;28;20368;-81
2023/08/01 04:25:37;;;;;;;6.65;3.75;;;;;;;23.87;58.78;94251.72;5068967;28;20306;-80
2023/08/01 04:28:04;;;;;;;7.28;4.55;;;;;;;24.50;57.82;94256.53;5068835;28;20199;-81
2023/08/01 04:30:33;;;;;;;4.57;3.90;;;;;;;25.87;54.56;94248.34;5069159;28;20569;-82
2023/08/01 04:32:59;;;;;;;6.55;4.25;;;;;;;26.31;52.48;94244.84;5068605;28;20226;-80
2023/08/01 04:35:26;;;;;;;5.68;3.85;;;;;;;26.39;52.00;94234.31;5068548;28;20937;-80
2023/08/01 04:37:53;;;;;;;4.22;3.78;;;;;;;27.23;49.96;94241.41;5069147;28;20625;-80
2023/08/01 04:40:20;;;;;;;5.15;4.43;;;;;;;26.92;50.58;94247.47;5068141;28;20199;-81
2023/08/01 04:42:46;;;;;;;5.07;4.18;;;;;;;26.84;51.20;94248.13;5070947;28;20317;-81
2023/08/01 04:45:14;;;;;;;7.45;3.83;;;;;;;27.68;49.38;94238.44;5069143;28;20276;-81
2023/08/01 04:47:42;;;;;;;4.53;3.58;;;;;;;29.06;45.41;94241.22;5069730;28;20770;-81
2023/08/01 04:50:09;;;;;;;4.20;3.72;;;;;;;29.15;44.08;94240.47;5068900;28;20206;-81
2023/08/01 04:52:36;;;;;;;6.80;3.95;;;;;;;29.41;44.56;94241.88;5066909;28;20264;-81
2023/08/01 04:55:03;;;;;;;6.75;3.83;;;;;;;29.69;43.46;94229.56;5068427;28;20219;-81
2023/08/01 04:57:29;;;;;;;6.65;3.70;;;;;;;29.74;43.14;94246.97;5068355;28;20203;-81
2023/08/01 04:59:56;;;;;;;4.45;3.78;;;;;;;31.00;40.71;94233.59;5073465;28;20259;-81
2023/08/01 05:02:23;;;;;;;4.35;3.78;;;;;;;29.53;42.27;94240.19;5067628;28;20686;-81
2023/08/01 05:04:52;;;;;;;5.90;4.18;;;;;;;30.19;41.33;94238.72;5069063;28;20206;-81
2023/08/01 05:07:19;;;;;;;5.22;3.55;;;;;;;31.44;39.60;94236.75;5069347;28;20199;-81
2023/08/01 05:09:45;;;;;;;5.05;4.25;;;;;;;32.03;38.41;94231.50;5069113;28;20613;-81
2023/08/01 05:12:12;;;;;;;6.70;3.97;;;;;;;32.37;37.13;94236.63;5074645;28;20660;-76
2023/08/01 05:14:39;;;;;;;4.00;3.50;;;;;;;32.24;37.48;94238.13;5076350;28;20199;-75
2023/08/01 05:17:06;;;;;;;4.88;3.78;;;;;;;32.84;36.45;94235.00;5067365;28;20654;-75
2023/08/01 05:19:33;;;;;;;3.95;3.55;;;;;;;32.65;36.80;94237.19;5068473;28;20203;-75
2023/08/01 05:22:01;;;;;;;5.03;3.80;;;;;;;32.17;37.79;94239.22;5068015;28;20224;-75
2023/08/01 05:24:27;;;;;;;6.65;4.90;;;;;;;32.68;36.35;94239.00;5068901;28;20191;-75
2023/08/01 05:26:54;;;;;;;4.15;3.40;;;;;;;34.03;34.90;94230.91;5082274;28;20290;-75
2023/08/01 05:29:21;;;;;;;7.07;3.95;;;;;;;32.40;36.90;94255.28;5068791;28;20210;-75
2023/08/01 05:31:48;;;;;;;5.38;3.90;;;;;;;32.58;36.55;94245.19;5068319;28;20238;-74
2023/08/01 05:34:15;;;;;;;4.05;3.40;;;;;;;33.24;35.79;94239.28;5068745;28;20207;-75
2023/08/01 05:36:41;;;;;;;5.22;3.50;;;;;;;34.86;33.15;94234.00;5068494;28;20701;-75
2023/08/01 05:39:10;;;;;;;7.15;3.38;;;;;;;35.05;32.47;94240.88;5068623;28;20199;-75
2023/08/01 05:41:37;;;;;;;5.32;3.80;;;;;;;34.39;33.24;94240.88;5068895;28;20199;-73
2023/08/01 05:44:05;;;;;;;5.20;3.25;;;;;;;33.11;34.22;94243.16;5068537;28;20195;-75
2023/08/01 05:46:31;;;;;;;5.75;2.92;;;;;;;33.73;33.70;94242.19;5065565;28;20210;-75
2023/08/01 05:48:58;;;;;;;4.05;3.30;;;;;;;33.38;34.67;94232.91;5068559;28;20210;-75
2023/08/01 05:51:25;;;;;;;8.13;3.65;;;;;;;32.76;35.75;94239.44;5068217;28;20207;-75
2023/08/01 05:53:52;;;;;;;4.97;3.33;;;;;;;33.91;33.15;94237.59;5068842;28;20207;-75
2023/08/01 05:56:20;;;;;;;4.97;3.28;;;;;;;34.84;32.55;94225.31;5068465;28;20231;-75
2023/08/01 05:58:47;;;;;;;8.30;3.00;;;;;;;32.86;35.04;94232.50;5068129;28;20620;-75
2023/08/01 06:01:13;;;;;;;3.90;2.92;;;;;;;33.44;34.07;94236.59;5068648;28;20199;-75
2023/08/01 06:03:40;;;;;;;3.10;2.80;;;;;;;34.34;32.83;94233.88;5069253;28;20494;-74
2023/08/01 06:06:07;;;;;;;3.22;2.63;;;;;;;31.46;36.78;94239.84;5070979;28;20191;-74
2023/08/01 06:08:34;;;;;;;4.20;3.10;;;;;;;31.51;36.91;94235.63;5071356;28;20198;-74
2023/08/01 06:11:00;;;;;;;4.53;2.83;;;;;;;32.63;34.64;94231.28;5071653;28;20219;-75
2023/08/01 06:13:28;;;;;;;3.65;2.15;;;;;;;31.81;33.64;94228.22;5071507;28;20253;-74
2023/08/01 06:15:55;;;;;;;3.95;1.95;;;;;;;30.72;34.93;94241.25;5071600;28;20237;-74
2023/08/01 06:18:21;;;;;;;2.55;1.90;;;;;;;30.64;34.61;94240.00;5068500;28;20207;-74
2023/08/01 06:20:48;;;;;;;3.15;2.08;;;;;;;29.44;37.24;94240.94;5071236;28;20195;-75
2023/08/01 06:23:15;;;;;;;5.00;1.92;;;;;;;28.68;38.74;94246.19;5071522;28;20225;-74
2023/08/01 06:25:42;;;;;;;2.78;1.98;;;;;;;30.47;36.75;94236.72;5070955;28;20633;-75
2023/08/01 06:28:09;;;;;;;4.05;2.13;;;;;;;31.37;35.06;94228.69;5070778;28;20309;-74
2023/08/01 06:30:37;;;;;;;2.30;2.03;;;;;;;30.82;35.77;94234.38;5071142;28;20202;-74
2023/08/01 06:33:03;;;;;;;2.83;2.20;;;;;;;29.91;37.05;94240.66;5070955;28;20624;-75
2023/08/01 06:35:30;;;;;;;6.40;2.08;;;;;;;31.62;34.76;94221.91;5070825;28;20700;-75
2023/08/01 06:37:57;;;;;;;5.45;2.55;;;;;;;33.34;32.08;94215.50;5071191;28;20600;-76
2023/08/01 06:40:25;;;;;;;4.25;2.17;;;;;;;31.54;34.30;94229.88;5070996;28;20203;-76
2023/08/01 06:42:51;;;;;;;3.63;2.22;;;;;;;32.99;32.51;94209.75;5071808;28;20203;-76
2023/08/01 06:45:18;;;;;;;3.92;2.08;;;;;;;33.24;31.47;94217.63;5071575;28;20203;-75
2023/08/01 06:47:46;;;;;;;3.50;2.22;;;;;;;34.17;30.69;94215.97;5066527;28;20298;-75
2023/08/01 06:50:13;;;;;;;3.15;2.03;;;;;;;32.03;33.24;94223.09;5070492;28;20256;-75
2023/08/01 06:52:40;;;;;;;3.92;2.10;;;;;;;32.06;33.75;94216.56;5072370;28;20674;-74
2023/08/01 06:55:07;;;;;;;5.20;2.50;;;;;;;32.22;33.24;94224.56;5070821;28;20199;-76
2023/08/01 06:57:34;;;;;;;4.75;2.33;;;;;;;32.45;33.61;94220.97;5068495;28;20215;-74
2023/08/01 07:00:01;;;;;;;4.13;2.63;;;;;;;33.44;32.70;94219.75;5076645;28;20190;-74
2023/08/01 07:02:28;;;;;;;2.85;2.22;;;;;;;33.47;31.83;94219.56;5071340;28;20730;-72
2023/08/01 07:04:56;;;;;;;2.42;2.00;;;;;;;32.79;32.50;94218.84;5070558;28;20240;-73
2023/08/01 07:07:23;;;;;;;3.30;2.33;;;;;;;34.17;31.11;94224.41;5071298;28;20237;-74
2023/08/01 07:09:50;;;;;;;3.38;2.25;;;;;;;34.37;30.80;94209.63;5070431;28;20199;-77
2023/08/01 07:12:16;;;;;;;4.50;2.40;;;;;;;34.95;30.39;94208.53;5070433;28;20256;-76
2023/08/01 07:14:43;;;;;;;3.60;1.98;;;;;;;32.79;33.47;94211.22;5069893;28;20252;-74
2023/08/01 07:17:10;;;;;;;5.32;2.55;;;;;;;33.15;32.55;94206.47;5069651;28;20697;-74
2023/08/01 07:19:37;;;;;;;3.65;2.28;;;;;;;32.98;32.87;94206.19;5070202;28;20560;-75
2023/08/01 07:22:05;;;;;;;3.42;2.40;;;;;;;33.14;32.56;94202.13;5070360;28;20194;-75
2023/08/01 07:24:32;;;;;;;3.00;2.30;;;;;;;32.94;32.63;94202.03;5069930;28;20618;-74
2023/08/01 07:26:59;;;;;;;5.50;2.30;;;;;;;33.15;32.85;94198.06;5069358;28;20191;-75
2023/08/01 07:29:25;;;;;;;6.25;2.70;;;;;;;32.94;33.10;94199.97;5069451;28;20195;-75
2023/08/01 07:31:52;;;;;;;4.00;2.65;;;;;;;32.45;33.25;94200.56;5069577;28;20230;-76
2023/08/01 07:34:19;;;;;;;3.08;2.55;;;;;;;32.23;33.57;94203.69;5067644;28;20191;-74
2023/08/01 07:36:48;;;;;;;5.55;2.67;;;;;;;32.15;33.60;94192.03;5070142;28;20223;-74
2023/08/01 07:39:16;;;;;;;3.35;2.60;;;;;;;31.19;35.74;94195.94;5069981;28;20207;-75
2023/08/01 07:41:43;;;;;;;5.65;2.63;;;;;;;31.16;36.07;94199.69;5070065;28;20194;-75
2023/08/01 07:44:10;;;;;;;5.18;2.80;;;;;;;31.63;34.77;94196.22;5070735;28;20203;-74
2023/08/01 07:46:36;;;;;;;9.25;2.55;;;;;;;31.34;36.12;94194.00;5068524;28;20194;-75
2023/08/01 07:49:03;;;;;;;5.72;2.97;;;;;;;30.26;37.16;94204.88;5069720;28;20257;-74
2023/08/01 07:51:30;;;;;;;4.40;2.50;;;;;;;29.93;37.39;94209.47;5066513;28;20657;-75
2023/08/01 07:53:58;;;;;;;4.55;2.47;;;;;;;29.70;38.51;94214.38;5069868;28;20248;-74
2023/08/01 07:56:26;;;;;;;3.35;2.50;;;;;;;29.63;38.67;94208.31;5069203;28;20757;-75
2023/08/01 07:58:52;;;;;;;6.90;2.80;;;;;;;28.84;39.35;94210.53;5068929;28;20211;-74
2023/08/01 08:01:19;;;;;;;5.18;2.88;;;;;;;30.26;37.37;94204.88;5077883;28;20284;-75
2023/08/01 08:03:46;;;;;;;3.80;2.67;;;;;;;31.04;36.20;94192.97;5069568;28;20843;-76
2023/08/01 08:06:13;;;;;;;4.63;2.42;;;;;;;31.42;36.08;94197.25;5069639;28;20755;-75
2023/08/01 08:08:40;;;;;;;3.85;2.70;;;;;;;30.72;36.85;94191.69;5063034;28;20207;-74
2023/08/01 08:11:06;;;;;;;5.38;3.05;;;;;;;30.30;38.37;94188.72;5059317;28;20289;-74
2023/08/01 08:13:35;;;;;;;5.43;2.95;;;;;;;29.29;39.09;94196.03;5069627;28;20661;-74
2023/08/01 08:16:01;;;;;;;4.95;3.10;;;;;;;30.17;38.29;94174.13;5069285;28;20243;-74
2023/08/01 08:18:28;;;;;;;4.13;2.42;;;;;;;30.82;37.61;94172.84;5069671;28;20256;-75
2023/08/01 08:20:55;;;;;;;4.47;2.80;;;;;;;31.13;36.99;94180.25;5079171;28;20206;-75
2023/08/01 08:23:21;;;;;;;4.57;2.88;;;;;;;31.54;35.92;94165.47;5073486;28;20203;-75
2023/08/01 08:25:49;;;;;;;6.43;2.97;;;;;;;29.63;38.98;94186.75;5069137;28;20657;-74
2023/08/01 08:28:17;;;;;;;4.55;2.70;;;;;;;29.52;39.30;94186.38;5071152;28;20298;-74
2023/08/01 08:30:46;;;;;;;3.75;3.05;;;;;;;29.88;39.12;94173.75;5072597;28;20613;-74
2023/08/01 08:33:20;;;;;;;7.18;3.03;;;;;;;29.08;40.44;94179.38;5068963;28;20601;-74
2023/08/01 08:35:47;;;;;;;5.93;2.90;;;;;;;28.99;40.96;94178.09;5067965;28;20714;-75
2023/08/01 08:38:14;;;;;;;6.40;2.97;;;;;;;28.99;40.57;94177.31;5067938;28;20195;-75
2023/08/01 08:40:44;;;;;;;4.97;2.88;;;;;;;29.05;41.18;94169.13;5069506;28;20284;-74
2023/08/01 08:43:12;;;;;;;6.20;2.95;;;;;;;29.06;40.44;94165.09;5069128;28;20252;-74
2023/08/01 08:45:44;;;;;;;3.10;2.72;;;;;;;29.05;40.80;94160.75;5068996;28;20626;-74
2023/08/01 08:48:18;;;;;;;4.40;2.97;;;;;;;29.61;40.05;94152.91;5062178;28;20186;-75
2023/08/01 08:50:47;;;;;;;4.65;3.22;;;;;;;30.14;38.49;94151.91;5069275;28;20302;-74
2023/08/01 08:53:15;;;;;;;8.45;3.28;;;;;;;30.12;39.02;94143.22;5066932;28;20206;-74
2023/08/01 08:55:42;;;;;;;6.05;3.20;;;;;;;29.87;38.85;94144.28;5066745;28;20281;-75
2023/08/01 08:58:09;;;;;;;8.85;3.15;;;;;;;30.39;38.57;94135.59;5059767;28;20229;-74
2023/08/01 09:00:37;;;;;;;3.55;3.00;;;;;;;30.53;38.50;94141.78;5077176;28;20285;-77
2023/08/01 09:03:04;;;;;;;3.88;2.88;;;;;;;30.09;38.66;94130.94;5069537;28;20230;-74
2023/08/01 09:05:35;;;;;;;3.00;2.53;;;;;;;29.85;39.02;94141.16;5068466;28;20206;-75
2023/08/01 09:08:08;;;;;;;3.47;2.90;;;;;;;28.83;40.27;94135.72;5068392;28;20420;-75
2023/08/01 09:10:35;;;;;;;4.68;3.17;;;;;;;28.66;40.96;94143.50;5067274;28;20204;-73
2023/08/01 09:13:02;;;;;;;5.07;2.97;;;;;;;28.60;40.82;94139.72;5068822;28;20244;-75
2023/08/01 09:15:29;;;;;;;3.90;2.53;;;;;;;28.98;40.64;94126.31;5067788;28;20229;-74
2023/08/01 09:18:00;;;;;;;4.35;3.33;;;;;;;29.02;40.46;94131.75;5068616;28;20318;-73
2023/08/01 09:20:27;;;;;;;6.82;3.15;;;;;;;28.70;40.60;94130.19;5068674;28;20210;-75
2023/08/01 09:22:55;;;;;;;5.78;3.35;;;;;;;28.94;41.00;94128.50;5068284;28;20192;-74
2023/08/01 09:25:32;;;;;;;5.60;3.40;;;;;;;28.62;40.95;94120.53;5068616;28;20260;-74
2023/08/01 09:27:59;;;;;;;6.35;3.13;;;;;;;28.50;42.06;94126.97;5066163;28;20201;-75
2023/08/01 09:30:25;;;;;;;4.68;3.28;;;;;;;29.17;39.99;94115.22;5048001;28;20204;-74
2023/08/01 09:32:53;;;;;;;3.33;3.03;;;;;;;28.89;40.89;94117.16;5060975;28;20242;-75
2023/08/01 09:35:21;;;;;;;4.00;3.60;;;;;;;27.80;42.66;94128.28;5067955;28;20596;-73
2023/08/01 09:37:48;;;;;;;9.82;3.53;;;;;;;28.10;41.95;94124.81;5068575;28;20231;-74
2023/08/01 09:40:17;;;;;;;6.18;3.58;;;;;;;29.02;40.96;94114.25;5072773;28;20195;-75
2023/08/01 09:42:45;;;;;;;5.57;3.10;;;;;;;29.19;40.96;94107.19;5072876;28;20206;-77
2023/08/01 09:45:15;;;;;;;4.30;3.30;;;;;;;28.93;40.65;94110.19;5072616;28;20195;-75
2023/08/01 09:47:42;;;;;;;4.95;3.13;;;;;;;28.08;42.86;94107.78;5075519;28;20294;-76
2023/08/01 09:50:10;;;;;;;6.57;3.70;;;;;;;28.16;43.34;94100.72;5072514;28;20199;-75
2023/08/01 09:52:38;;;;;;;5.82;3.78;;;;;;;28.61;43.53;94097.47;5071978;28;20225;-75
2023/08/01 09:55:05;;;;;;;4.03;3.22;;;;;;;28.90;40.75;94097.16;5072798;28;20665;-73
2023/08/01 09:57:38;;;;;;;4.55;3.50;;;;;;;29.20;41.13;94097.59;5072468;28;20307;-74
2023/08/01 10:00:09;;;;;;;5.40;3.22;;;;;;;29.61;39.92;94088.69;5078683;28;20187;-74
2023/08/01 10:02:37;;;;;;;4.95;3.13;;;;;;;29.38;40.20;94089.28;5070974;28;20218;-73
2023/08/01 10:05:05;;;;;;;4.28;3.25;;;;;;;29.46;40.51;94081.38;5072828;28;20199;-74
2023/08/01 10:07:34;;;;;;;7.22;4.05;;;;;;;29.76;39.78;94065.75;5072079;28;20231;-73
2023/08/01 10:10:01;;;;;;;5.25;3.65;;;;;;;29.89;39.59;94058.78;5072541;28;20210;-74
2023/08/01 10:12:28;;;;;;;5.15;3.60;;;;;;;29.85;39.73;94058.16;5072120;28;20199;-74
2023/08/01 10:14:59;;;;;;;5.15;3.47;;;;;;;30.07;39.92;94058.00;5072009;28;20218;-74
2023/08/01 10:17:27;;;;;;;4.25;3.40;;;;;;;29.75;39.71;94058.63;5059844;28;20238;-74
2023/08/01 10:19:57;;;;;;;5.72;3.28;;;;;;;29.70;39.40;94052.41;5072053;28;20198;-74
2023/08/01 10:22:25;;;;;;;7.05;3.30;;;;;;;29.90;39.53;94042.78;5071974;28;20203;-72
2023/08/01 10:24:53;;;;;;;6.78;3.17;;;;;;;29.87;40.67;94047.28;5071914;28;20194;-74
2023/08/01 10:27:21;;;;;;;5.60;3.20;;;;;;;30.02;40.92;94044.66;5072344;28;20292;-75
2023/08/01 10:30:00;;;;;;;5.35;3.92;;;;;;;29.85;39.87;94040.59;5071514;28;20203;-75
2023/08/01 10:32:35;;;;;;;5.63;3.50;;;;;;;29.52;40.62;94052.38;5071936;28;20257;-75
2023/08/01 10:35:02;;;;;;;5.80;4.07;;;;;;;29.40;40.11;94033.75;5071356;28;20256;-76
2023/08/01 10:37:40;;;;;;;4.53;3.45;;;;;;;29.30;40.56;94041.31;5071139;28;20227;-75
2023/08/01 10:40:11;;;;;;;11.52;3.58;;;;;;;28.72;40.56;94044.06;5058358;28;20187;-75
2023/08/01 10:42:42;;;;;;;4.55;3.67;;;;;;;27.78;42.42;94044.44;5070902;28;20563;-77
2023/08/01 10:45:22;;;;;;;6.30;3.35;;;;;;;28.05;42.85;94039.06;5071341;28;20203;-75
2023/08/01 10:47:49;;;;;;;11.38;3.70;;;;;;;28.03;43.37;94035.94;5068722;28;20660;-75
2023/08/01 10:50:16;;;;;;;7.50;3.30;;;;;;;28.39;43.27;94037.44;5069981;28;20206;-74
2023/08/01 10:52:43;;;;;;;4.47;3.30;;;;;;;28.57;42.04;94024.34;5071033;28;20431;-75
2023/08/01 10:55:11;;;;;;;6.70;3.50;;;;;;;28.95;41.58;94015.69;5071271;28;20256;-75
2023/08/01 10:57:40;;;;;;;5.07;3.38;;;;;;;28.75;40.43;94018.06;5071244;28;20280;-75
2023/08/01 11:00:09;;;;;;;3.72;3.03;;;;;;;29.55;40.09;93998.41;5071380;28;20348;-74
2023/08/01 11:02:38;;;;;;;3.97;2.72;;;;;;;29.45;39.08;94010.06;5070841;28;20230;-74
2023/08/01 11:05:06;;;;;;;5.13;3.58;;;;;;;29.52;39.58;94007.72;5083206;28;20233;-75
2023/08/01 11:07:33;;;;;;;4.43;3.40;;;;;;;28.97;39.92;94018.03;5071301;28;20199;-74
2023/08/01 11:10:08;;;;;;;5.63;3.50;;;;;;;29.25;39.58;93999.28;5071499;28;20203;-74
2023/08/01 11:12:37;;;;;;;4.38;3.40;;;;;;;30.03;38.47;93990.34;5059074;28;20243;-74
2023/08/01 11:15:05;;;;;;;7.88;3.70;;;;;;;30.31;38.07;93991.81;5070724;28;20254;-75
2023/08/01 11:17:33;;;;;;;6.28;3.17;;;;;;;30.80;37.75;93990.72;5071154;28;20233;-75
2023/08/01 11:20:07;;;;;;;5.68;3.58;;;;;;;30.80;38.45;93979.53;5071129;28;20321;-75
2023/08/01 11:22:34;;;;;;;4.10;3.03;;;;;;;30.44;37.36;93980.44;5070951;28;20191;-75
2023/08/01 11:25:01;;;;;;;6.00;3.58;;;;;;;30.66;36.82;93977.41;5070537;28;20587;-73
2023/08/01 11:27:28;;;;;;;5.93;3.08;;;;;;;30.36;36.84;93980.00;5070675;28;20260;-75
2023/08/01 11:29:55;;;;;;;4.72;2.90;;;;;;;30.34;37.40;93976.88;5070653;28;20207;-75
2023/08/01 11:32:23;;;;;;;4.82;2.92;;;;;;;30.66;35.66;93969.81;5080937;28;20234;-75
2023/08/01 11:34:50;;;;;;;8.15;3.70;;;;;;;31.30;35.50;93966.63;5073616;28;20210;-73